sensor_id;sensor_type;location;lat;lon;timestamp;pressure;altitude;pressure_sealevel;temperature;humidity
25526;BME280;13424;48.424;11.258;2024-02-21T00:00:16;96574.00;;;9.30;64.83
25526;BME280;13424;48.424;11.258;2024-02-21T00:02:43;96569.25;;;9.45;64.54
25526;BME280;13424;48.424;11.258;2024-02-21T00:05:09;96565.75;;;9.51;65.01
25526;BME280;13424;48.424;11.258;2024-02-21T00:07:35;96561.03;;;9.53;64.61
25526;BME280;13424;48.424;11.258;2024-02-21T00:10:00;96560.13;;;9.01;65.60
25526;BME280;13424;48.424;11.258;2024-02-21T00:12:26;96558.22;;;9.28;65.17
25526;BME280;13424;48.424;11.258;2024-02-21T00:14:52;96559.03;;;9.35;65.27
25526;BME280;13424;48.424;11.258;2024-02-21T00:17:19;96552.91;;;9.35;65.07
25526;BME280;13424;48.424;11.258;2024-02-21T00:19:45;96547.63;;;9.02;65.66
25526;BME280;13424;48.424;11.258;2024-02-21T00:22:11;96549.66;;;9.19;65.29
25526;BME280;13424;48.424;11.258;2024-02-21T00:24:37;96541.47;;;9.21;65.25
25526;BME280;13424;48.424;11.258;2024-02-21T00:27:03;96536.50;;;9.38;65.12
25526;BME280;13424;48.424;11.258;2024-02-21T00:29:29;96542.44;;;9.40;64.91
25526;BME280;13424;48.424;11.258;2024-02-21T00:31:55;96543.03;;;9.48;65.44
25526;BME280;13424;48.424;11.258;2024-02-21T00:34:21;96542.25;;;9.28;65.66
25526;BME280;13424;48.424;11.258;2024-02-21T00:36:47;96541.47;;;9.21;65.87
25526;BME280;13424;48.424;11.258;2024-02-21T00:39:13;96536.13;;;9.14;65.70
25526;BME280;13424;48.424;11.258;2024-02-21T00:41:39;96534.72;;;9.12;66.27
25526;BME280;13424;48.424;11.258;2024-02-21T00:44:05;96536.19;;;8.88;66.74
25526;BME280;13424;48.424;11.258;2024-02-21T00:46:32;96538.84;;;9.01;66.26
25526;BME280;13424;48.424;11.258;2024-02-21T00:48:58;96533.91;;;8.98;66.25
25526;BME280;13424;48.424;11.258;2024-02-21T00:51:24;96530.81;;;9.14;65.40
25526;BME280;13424;48.424;11.258;2024-02-21T00:53:50;96529.19;;;9.07;66.20
25526;BME280;13424;48.424;11.258;2024-02-21T00:56:16;96525.28;;;9.16;65.72
25526;BME280;13424;48.424;11.258;2024-02-21T00:58:42;96523.84;;;9.27;65.75
25526;BME280;13424;48.424;11.258;2024-02-21T01:01:08;96527.91;;;9.29;65.79
25526;BME280;13424;48.424;11.258;2024-02-21T01:03:34;96526.13;;;9.03;66.17
25526;BME280;13424;48.424;11.258;2024-02-21T01:06:00;96513.66;;;8.84;66.83
25526;BME280;13424;48.424;11.258;2024-02-21T01:08:26;96511.81;;;9.04;66.34
25526;BME280;13424;48.424;11.258;2024-02-21T01:10:52;96512.84;;;8.77;67.18
25526;BME280;13424;48.424;11.258;2024-02-21T01:13:18;96501.16;;;8.91;66.98
25526;BME280;13424;48.424;11.258;2024-02-21T01:15:44;96499.97;;;8.87;67.41
25526;BME280;13424;48.424;11.258;2024-02-21T01:18:10;96502.38;;;9.08;66.89
25526;BME280;13424;48.424;11.258;2024-02-21T01:20:36;96505.06;;;9.02;66.87
25526;BME280;13424;48.424;11.258;2024-02-21T01:23:02;96499.91;;;9.00;67.04
25526;BME280;13424;48.424;11.258;2024-02-21T01:25:28;96501.00;;;8.86;67.25
25526;BME280;13424;48.424;11.258;2024-02-21T01:27:54;96503.44;;;8.94;67.29
25526;BME280;13424;48.424;11.258;2024-02-21T01:30:20;96504.06;;;8.70;67.89
25526;BME280;13424;48.424;11.258;2024-02-21T01:32:46;96498.53;;;8.78;67.43
25526;BME280;13424;48.424;11.258;2024-02-21T01:35:12;96493.78;;;9.00;67.34
25526;BME280;13424;48.424;11.258;2024-02-21T01:37:37;96492.94;;;9.12;66.86
25526;BME280;13424;48.424;11.258;2024-02-21T01:40:05;96485.78;;;9.06;67.31
25526;BME280;13424;48.424;11.258;2024-02-21T01:42:31;96484.97;;;9.06;67.27
25526;BME280;13424;48.424;11.258;2024-02-21T01:45:00;96473.34;;;8.93;67.35
25526;BME280;13424;48.424;11.258;2024-02-21T01:47:26;96471.03;;;9.17;66.84
25526;BME280;13424;48.424;11.258;2024-02-21T01:49:52;96468.97;;;9.19;66.61
25526;BME280;13424;48.424;11.258;2024-02-21T01:52:18;96470.41;;;9.21;66.27
25526;BME280;13424;48.424;11.258;2024-02-21T01:54:45;96460.78;;;9.14;66.99
25526;BME280;13424;48.424;11.258;2024-02-21T01:57:12;96457.41;;;9.45;65.97
25526;BME280;13424;48.424;11.258;2024-02-21T01:59:38;96455.97;;;9.49;65.90
25526;BME280;13424;48.424;11.258;2024-02-21T02:02:05;96449.06;;;9.35;65.97
25526;BME280;13424;48.424;11.258;2024-02-21T02:04:31;96453.84;;;9.06;66.49
25526;BME280;13424;48.424;11.258;2024-02-21T02:07:00;96443.28;;;9.44;65.51
25526;BME280;13424;48.424;11.258;2024-02-21T02:09:28;96443.13;;;9.33;65.65
25526;BME280;13424;48.424;11.258;2024-02-21T02:11:54;96443.78;;;9.21;66.14
25526;BME280;13424;48.424;11.258;2024-02-21T02:14:20;96441.56;;;9.18;66.26
25526;BME280;13424;48.424;11.258;2024-02-21T02:16:47;96438.50;;;9.08;66.37
25526;BME280;13424;48.424;11.258;2024-02-21T02:19:13;96436.03;;;9.13;66.37
25526;BME280;13424;48.424;11.258;2024-02-21T02:21:49;96425.84;;;9.04;66.32
25526;BME280;13424;48.424;11.258;2024-02-21T02:24:20;96427.25;;;9.06;66.16
25526;BME280;13424;48.424;11.258;2024-02-21T02:26:47;96421.22;;;9.24;66.01
25526;BME280;13424;48.424;11.258;2024-02-21T02:29:13;96420.41;;;9.30;66.10
25526;BME280;13424;48.424;11.258;2024-02-21T02:31:39;96416.75;;;9.25;65.80
25526;BME280;13424;48.424;11.258;2024-02-21T02:34:05;96418.69;;;8.98;66.42
25526;BME280;13424;48.424;11.258;2024-02-21T02:36:33;96415.38;;;9.09;66.64
25526;BME280;13424;48.424;11.258;2024-02-21T02:39:00;96407.97;;;9.17;65.83
25526;BME280;13424;48.424;11.258;2024-02-21T02:41:26;96405.88;;;9.26;65.82
25526;BME280;13424;48.424;11.258;2024-02-21T02:43:52;96412.88;;;9.14;66.52
25526;BME280;13424;48.424;11.258;2024-02-21T02:46:18;96407.91;;;9.31;65.56
25526;BME280;13424;48.424;11.258;2024-02-21T02:48:44;96401.53;;;9.32;65.23
25526;BME280;13424;48.424;11.258;2024-02-21T02:51:11;96394.44;;;9.26;65.43
25526;BME280;13424;48.424;11.258;2024-02-21T02:53:36;96398.75;;;9.13;65.77
25526;BME280;13424;48.424;11.258;2024-02-21T02:56:03;96400.50;;;8.88;66.48
25526;BME280;13424;48.424;11.258;2024-02-21T02:58:29;96392.88;;;8.98;66.17
25526;BME280;13424;48.424;11.258;2024-02-21T03:00:55;96393.94;;;8.84;66.47
25526;BME280;13424;48.424;11.258;2024-02-21T03:03:21;96406.28;;;8.72;66.92
25526;BME280;13424;48.424;11.258;2024-02-21T03:05:47;96399.44;;;8.95;66.34
25526;BME280;13424;48.424;11.258;2024-02-21T03:08:13;96397.16;;;9.06;66.19
25526;BME280;13424;48.424;11.258;2024-02-21T03:10:39;96392.50;;;8.88;66.23
25526;BME280;13424;48.424;11.258;2024-02-21T03:13:07;96399.00;;;9.05;65.56
25526;BME280;13424;48.424;11.258;2024-02-21T03:15:42;96381.50;;;8.78;66.63
25526;BME280;13424;48.424;11.258;2024-02-21T03:18:08;96387.78;;;8.90;66.48
25526;BME280;13424;48.424;11.258;2024-02-21T03:20:34;96386.53;;;8.99;66.14
25526;BME280;13424;48.424;11.258;2024-02-21T03:23:00;96391.59;;;9.14;65.78
25526;BME280;13424;48.424;11.258;2024-02-21T03:25:26;96383.06;;;8.99;65.65
25526;BME280;13424;48.424;11.258;2024-02-21T03:27:52;96398.53;;;9.21;65.53
25526;BME280;13424;48.424;11.258;2024-02-21T03:30:18;96388.44;;;8.79;67.16
25526;BME280;13424;48.424;11.258;2024-02-21T03:32:44;96392.06;;;9.04;66.31
25526;BME280;13424;48.424;11.258;2024-02-21T03:35:10;96378.63;;;8.86;66.63
25526;BME280;13424;48.424;11.258;2024-02-21T03:37:36;96377.94;;;8.97;66.32
25526;BME280;13424;48.424;11.258;2024-02-21T03:40:02;96373.31;;;8.79;66.61
25526;BME280;13424;48.424;11.258;2024-02-21T03:42:28;96367.53;;;8.89;66.87
25526;BME280;13424;48.424;11.258;2024-02-21T03:44:57;96370.16;;;9.02;66.75
25526;BME280;13424;48.424;11.258;2024-02-21T03:47:28;96371.47;;;8.73;66.97
25526;BME280;13424;48.424;11.258;2024-02-21T03:49:54;96371.25;;;8.75;67.24
25526;BME280;13424;48.424;11.258;2024-02-21T03:52:21;96374.34;;;8.78;67.27
25526;BME280;13424;48.424;11.258;2024-02-21T03:54:46;96381.91;;;8.75;67.22
25526;BME280;13424;48.424;11.258;2024-02-21T03:57:12;96384.16;;;8.78;66.97
25526;BME280;13424;48.424;11.258;2024-02-21T03:59:38;96381.03;;;9.01;66.72
25526;BME280;13424;48.424;11.258;2024-02-21T04:02:06;96381.06;;;8.87;67.03
25526;BME280;13424;48.424;11.258;2024-02-21T04:04:35;96378.56;;;8.92;67.20
25526;BME280;13424;48.424;11.258;2024-02-21T04:07:04;96382.47;;;8.90;67.24
25526;BME280;13424;48.424;11.258;2024-02-21T04:09:34;96375.88;;;8.99;66.79
25526;BME280;13424;48.424;11.258;2024-02-21T04:12:01;96366.28;;;8.98;66.75
25526;BME280;13424;48.424;11.258;2024-02-21T04:14:27;96368.38;;;8.83;67.00
25526;BME280;13424;48.424;11.258;2024-02-21T04:17:59;96358.13;;;8.93;67.06
25526;BME280;13424;48.424;11.258;2024-02-21T04:20:25;96357.56;;;8.71;67.69
25526;BME280;13424;48.424;11.258;2024-02-21T04:22:57;96352.03;;;8.79;67.10
25526;BME280;13424;48.424;11.258;2024-02-21T04:25:23;96353.22;;;8.90;66.78
25526;BME280;13424;48.424;11.258;2024-02-21T04:27:58;96350.75;;;8.95;67.01
25526;BME280;13424;48.424;11.258;2024-02-21T04:30:24;96343.25;;;8.72;67.62
25526;BME280;13424;48.424;11.258;2024-02-21T04:32:50;96332.41;;;8.74;67.11
25526;BME280;13424;48.424;11.258;2024-02-21T04:35:16;96326.47;;;8.78;67.32
25526;BME280;13424;48.424;11.258;2024-02-21T04:37:43;96324.19;;;8.82;67.18
25526;BME280;13424;48.424;11.258;2024-02-21T04:40:11;96322.41;;;8.62;67.66
25526;BME280;13424;48.424;11.258;2024-02-21T04:42:37;96318.91;;;8.68;67.39
25526;BME280;13424;48.424;11.258;2024-02-21T04:45:04;96322.16;;;8.77;67.31
25526;BME280;13424;48.424;11.258;2024-02-21T04:47:30;96318.06;;;8.75;67.56
25526;BME280;13424;48.424;11.258;2024-02-21T04:49:56;96310.72;;;9.15;66.37
25526;BME280;13424;48.424;11.258;2024-02-21T04:52:22;96312.56;;;9.14;66.28
25526;BME280;13424;48.424;11.258;2024-02-21T04:54:48;96301.66;;;9.22;66.17
25526;BME280;13424;48.424;11.258;2024-02-21T04:57:14;96305.22;;;9.16;65.93
25526;BME280;13424;48.424;11.258;2024-02-21T04:59:48;96299.44;;;9.19;65.96
25526;BME280;13424;48.424;11.258;2024-02-21T05:02:14;96285.84;;;9.34;65.94
25526;BME280;13424;48.424;11.258;2024-02-21T05:04:42;96277.03;;;9.02;66.20
25526;BME280;13424;48.424;11.258;2024-02-21T05:07:09;96281.97;;;8.92;66.65
25526;BME280;13424;48.424;11.258;2024-02-21T05:09:36;96274.00;;;8.92;66.74
25526;BME280;13424;48.424;11.258;2024-02-21T05:12:03;96274.00;;;9.23;65.54
25526;BME280;13424;48.424;11.258;2024-02-21T05:14:29;96279.13;;;8.93;66.19
25526;BME280;13424;48.424;11.258;2024-02-21T05:16:55;96268.09;;;9.21;64.82
25526;BME280;13424;48.424;11.258;2024-02-21T05:19:21;96270.56;;;8.85;65.95
25526;BME280;13424;48.424;11.258;2024-02-21T05:21:47;96270.19;;;9.13;65.11
25526;BME280;13424;48.424;11.258;2024-02-21T05:24:13;96260.03;;;9.03;65.20
25526;BME280;13424;48.424;11.258;2024-02-21T05:26:39;96260.88;;;8.97;65.66
25526;BME280;13424;48.424;11.258;2024-02-21T05:29:05;96255.78;;;8.95;65.20
25526;BME280;13424;48.424;11.258;2024-02-21T05:34:19;96243.97;;;8.85;65.57
25526;BME280;13424;48.424;11.258;2024-02-21T05:36:46;96242.81;;;8.67;65.78
25526;BME280;13424;48.424;11.258;2024-02-21T05:39:18;96231.84;;;8.51;66.21
25526;BME280;13424;48.424;11.258;2024-02-21T05:41:45;96230.22;;;8.43;66.27
25526;BME280;13424;48.424;11.258;2024-02-21T05:44:11;96226.75;;;8.43;66.04
25526;BME280;13424;48.424;11.258;2024-02-21T05:46:37;96231.34;;;8.67;65.33
25526;BME280;13424;48.424;11.258;2024-02-21T05:49:03;96231.44;;;8.54;65.79
25526;BME280;13424;48.424;11.258;2024-02-21T05:51:34;96231.84;;;8.51;65.74
25526;BME280;13424;48.424;11.258;2024-02-21T05:54:56;96229.25;;;8.76;65.09
25526;BME280;13424;48.424;11.258;2024-02-21T05:57:22;96225.22;;;8.66;65.85
25526;BME280;13424;48.424;11.258;2024-02-21T05:59:48;96225.06;;;8.61;65.66
25526;BME280;13424;48.424;11.258;2024-02-21T06:02:14;96223.09;;;8.82;65.62
25526;BME280;13424;48.424;11.258;2024-02-21T06:04:40;96216.09;;;8.94;65.17
25526;BME280;13424;48.424;11.258;2024-02-21T06:07:08;96225.00;;;9.06;64.95
25526;BME280;13424;48.424;11.258;2024-02-21T06:09:34;96214.00;;;8.96;65.14
25526;BME280;13424;48.424;11.258;2024-02-21T06:12:00;96213.81;;;9.22;64.28
25526;BME280;13424;48.424;11.258;2024-02-21T06:14:26;96209.06;;;9.31;63.88
25526;BME280;13424;48.424;11.258;2024-02-21T06:16:52;96206.78;;;9.35;64.50
25526;BME280;13424;48.424;11.258;2024-02-21T06:19:18;96211.53;;;9.01;65.26
25526;BME280;13424;48.424;11.258;2024-02-21T06:21:44;96207.72;;;9.15;64.59
25526;BME280;13424;48.424;11.258;2024-02-21T06:24:10;96214.19;;;9.33;63.90
25526;BME280;13424;48.424;11.258;2024-02-21T06:26:39;96215.59;;;9.60;63.00
25526;BME280;13424;48.424;11.258;2024-02-21T06:29:06;96218.19;;;9.42;63.52
25526;BME280;13424;48.424;11.258;2024-02-21T06:31:35;96210.97;;;9.49;63.41
25526;BME280;13424;48.424;11.258;2024-02-21T06:34:01;96209.38;;;9.66;62.98
25526;BME280;13424;48.424;11.258;2024-02-21T06:36:28;96202.91;;;9.81;62.94
25526;BME280;13424;48.424;11.258;2024-02-21T06:38:54;96201.81;;;9.88;61.97
25526;BME280;13424;48.424;11.258;2024-02-21T06:41:20;96195.59;;;9.51;62.89
25526;BME280;13424;48.424;11.258;2024-02-21T06:43:47;96207.16;;;10.06;62.27
25526;BME280;13424;48.424;11.258;2024-02-21T06:46:27;96200.25;;;10.17;61.75
25526;BME280;13424;48.424;11.258;2024-02-21T06:48:56;96207.84;;;9.77;62.21
25526;BME280;13424;48.424;11.258;2024-02-21T06:51:23;96206.03;;;10.14;61.50
25526;BME280;13424;48.424;11.258;2024-02-21T06:53:48;96209.47;;;10.21;61.04
25526;BME280;13424;48.424;11.258;2024-02-21T06:56:14;96209.19;;;9.86;61.99
25526;BME280;13424;48.424;11.258;2024-02-21T06:58:40;96209.75;;;10.50;60.83
25526;BME280;13424;48.424;11.258;2024-02-21T07:01:08;96210.16;;;10.35;61.65
25526;BME280;13424;48.424;11.258;2024-02-21T07:03:34;96216.56;;;10.64;61.21
25526;BME280;13424;48.424;11.258;2024-02-21T07:06:00;96218.56;;;10.50;61.74
25526;BME280;13424;48.424;11.258;2024-02-21T07:08:26;96215.19;;;10.73;60.56
25526;BME280;13424;48.424;11.258;2024-02-21T07:10:52;96211.84;;;10.48;61.34
25526;BME280;13424;48.424;11.258;2024-02-21T07:13:18;96211.09;;;10.59;61.25
25526;BME280;13424;48.424;11.258;2024-02-21T07:15:44;96216.59;;;10.27;61.35
25526;BME280;13424;48.424;11.258;2024-02-21T07:21:51;96223.69;;;10.52;59.71
25526;BME280;13424;48.424;11.258;2024-02-21T07:24:17;96223.72;;;10.82;59.61
25526;BME280;13424;48.424;11.258;2024-02-21T07:26:52;96217.91;;;10.55;60.50
25526;BME280;13424;48.424;11.258;2024-02-21T07:29:19;96211.72;;;10.43;60.54
25526;BME280;13424;48.424;11.258;2024-02-21T07:31:45;96212.72;;;10.05;61.38
25526;BME280;13424;48.424;11.258;2024-02-21T07:34:11;96206.78;;;10.21;61.61
25526;BME280;13424;48.424;11.258;2024-02-21T07:36:37;96199.53;;;10.47;61.35
25526;BME280;13424;48.424;11.258;2024-02-21T07:39:04;96198.63;;;10.71;59.93
25526;BME280;13424;48.424;11.258;2024-02-21T07:41:31;96202.69;;;11.04;59.29
25526;BME280;13424;48.424;11.258;2024-02-21T07:43:57;96187.06;;;11.19;58.81
25526;BME280;13424;48.424;11.258;2024-02-21T07:46:23;96181.78;;;11.01;58.25
25526;BME280;13424;48.424;11.258;2024-02-21T07:48:50;96172.66;;;10.78;58.22
25526;BME280;13424;48.424;11.258;2024-02-21T07:51:16;96164.97;;;11.12;58.20
25526;BME280;13424;48.424;11.258;2024-02-21T07:53:52;96169.47;;;11.65;57.66
25526;BME280;13424;48.424;11.258;2024-02-21T07:56:18;96170.31;;;11.12;57.97
25526;BME280;13424;48.424;11.258;2024-02-21T07:58:44;96170.66;;;10.74;59.15
25526;BME280;13424;48.424;11.258;2024-02-21T08:01:10;96179.63;;;11.21;58.27
25526;BME280;13424;48.424;11.258;2024-02-21T08:03:37;96175.72;;;11.59;58.25
25526;BME280;13424;48.424;11.258;2024-02-21T08:06:03;96173.28;;;11.69;56.91
25526;BME280;13424;48.424;11.258;2024-02-21T08:08:29;96168.97;;;11.68;57.35
25526;BME280;13424;48.424;11.258;2024-02-21T08:10:56;96176.66;;;11.76;57.02
25526;BME280;13424;48.424;11.258;2024-02-21T08:13:21;96168.16;;;11.32;57.83
25526;BME280;13424;48.424;11.258;2024-02-21T08:15:47;96174.56;;;11.66;58.10
25526;BME280;13424;48.424;11.258;2024-02-21T08:18:13;96164.69;;;11.55;57.72
25526;BME280;13424;48.424;11.258;2024-02-21T08:20:39;96178.06;;;12.14;56.77
25526;BME280;13424;48.424;11.258;2024-02-21T08:23:05;96176.88;;;12.33;55.96
25526;BME280;13424;48.424;11.258;2024-02-21T08:25:31;96171.22;;;11.71;57.68
25526;BME280;13424;48.424;11.258;2024-02-21T08:27:59;96176.78;;;12.05;57.04
25526;BME280;13424;48.424;11.258;2024-02-21T08:30:25;96172.28;;;12.45;57.39
25526;BME280;13424;48.424;11.258;2024-02-21T08:32:51;96175.75;;;12.06;56.89
25526;BME280;13424;48.424;11.258;2024-02-21T08:35:20;96164.34;;;11.63;57.36
25526;BME280;13424;48.424;11.258;2024-02-21T08:37:48;96162.28;;;11.89;57.24
25526;BME280;13424;48.424;11.258;2024-02-21T08:40:15;96158.31;;;11.91;57.18
25526;BME280;13424;48.424;11.258;2024-02-21T08:42:45;96161.44;;;12.00;57.02
25526;BME280;13424;48.424;11.258;2024-02-21T08:45:11;96151.44;;;11.60;57.54
25526;BME280;13424;48.424;11.258;2024-02-21T08:48:29;96152.03;;;11.74;57.41
25526;BME280;13424;48.424;11.258;2024-02-21T08:50:55;96150.28;;;11.68;58.10
25526;BME280;13424;48.424;11.258;2024-02-21T08:53:21;96156.56;;;11.50;57.93
25526;BME280;13424;48.424;11.258;2024-02-21T08:55:47;96156.47;;;11.80;58.53
25526;BME280;13424;48.424;11.258;2024-02-21T08:58:13;96157.38;;;11.74;58.92
25526;BME280;13424;48.424;11.258;2024-02-21T09:00:40;96149.84;;;11.48;58.10
25526;BME280;13424;48.424;11.258;2024-02-21T09:03:06;96145.97;;;11.67;58.09
25526;BME280;13424;48.424;11.258;2024-02-21T09:05:32;96150.91;;;11.93;58.31
25526;BME280;13424;48.424;11.258;2024-02-21T09:08:00;96148.69;;;11.90;56.71
25526;BME280;13424;48.424;11.258;2024-02-21T09:10:26;96147.88;;;12.01;57.27
25526;BME280;13424;48.424;11.258;2024-02-21T09:12:52;96151.75;;;12.22;55.80
25526;BME280;13424;48.424;11.258;2024-02-21T09:15:18;96142.28;;;12.43;55.97
25526;BME280;13424;48.424;11.258;2024-02-21T09:17:44;96146.66;;;12.21;56.72
25526;BME280;13424;48.424;11.258;2024-02-21T09:20:10;96142.03;;;12.56;55.84
25526;BME280;13424;48.424;11.258;2024-02-21T09:22:37;96136.81;;;12.38;56.60
25526;BME280;13424;48.424;11.258;2024-02-21T09:25:06;96139.47;;;12.50;55.70
25526;BME280;13424;48.424;11.258;2024-02-21T09:27:32;96137.69;;;12.55;56.53
25526;BME280;13424;48.424;11.258;2024-02-21T09:29:59;96133.00;;;12.63;54.71
25526;BME280;13424;48.424;11.258;2024-02-21T09:32:25;96125.00;;;12.34;57.16
25526;BME280;13424;48.424;11.258;2024-02-21T09:34:51;96120.28;;;13.15;56.17
25526;BME280;13424;48.424;11.258;2024-02-21T09:37:17;96122.75;;;13.50;55.14
25526;BME280;13424;48.424;11.258;2024-02-21T09:39:44;96120.56;;;13.47;54.20
25526;BME280;13424;48.424;11.258;2024-02-21T09:42:12;96118.03;;;13.57;53.68
25526;BME280;13424;48.424;11.258;2024-02-21T09:44:38;96119.19;;;13.61;52.40
25526;BME280;13424;48.424;11.258;2024-02-21T09:47:22;96107.44;;;13.29;53.04
25526;BME280;13424;48.424;11.258;2024-02-21T09:49:51;96097.13;;;13.37;53.52
25526;BME280;13424;48.424;11.258;2024-02-21T09:52:19;96103.59;;;13.25;54.84
25526;BME280;13424;48.424;11.258;2024-02-21T09:54:47;96094.66;;;13.91;53.45
25526;BME280;13424;48.424;11.258;2024-02-21T09:57:15;96094.59;;;13.86;52.43
25526;BME280;13424;48.424;11.258;2024-02-21T09:59:42;96095.69;;;14.07;52.03
25526;BME280;13424;48.424;11.258;2024-02-21T10:02:08;96100.34;;;14.17;52.15
25526;BME280;13424;48.424;11.258;2024-02-21T10:04:34;96091.06;;;14.24;52.39
25526;BME280;13424;48.424;11.258;2024-02-21T10:07:00;96096.03;;;13.94;53.97
25526;BME280;13424;48.424;11.258;2024-02-21T10:09:28;96098.63;;;13.17;53.03
25526;BME280;13424;48.424;11.258;2024-02-21T10:12:08;96095.31;;;13.60;52.57
25526;BME280;13424;48.424;11.258;2024-02-21T10:14:38;96095.16;;;13.88;52.13
25526;BME280;13424;48.424;11.258;2024-02-21T10:17:04;96098.72;;;14.16;51.86
25526;BME280;13424;48.424;11.258;2024-02-21T10:19:35;96088.28;;;13.76;52.69
25526;BME280;13424;48.424;11.258;2024-02-21T10:22:07;96086.03;;;13.67;53.11
25526;BME280;13424;48.424;11.258;2024-02-21T10:24:37;96078.41;;;14.69;51.88
25526;BME280;13424;48.424;11.258;2024-02-21T10:31:00;96070.50;;;14.57;51.35
25526;BME280;13424;48.424;11.258;2024-02-21T10:33:26;96061.69;;;14.89;50.13
25526;BME280;13424;48.424;11.258;2024-02-21T10:35:54;96063.38;;;15.00;50.96
25526;BME280;13424;48.424;11.258;2024-02-21T10:38:20;96057.13;;;14.89;51.62
25526;BME280;13424;48.424;11.258;2024-02-21T10:40:47;96050.81;;;15.43;50.74
25526;BME280;13424;48.424;11.258;2024-02-21T10:43:14;96045.44;;;15.48;49.60
25526;BME280;13424;48.424;11.258;2024-02-21T10:45:42;96042.22;;;15.46;49.01
25526;BME280;13424;48.424;11.258;2024-02-21T10:48:12;96041.97;;;14.46;49.70
25526;BME280;13424;48.424;11.258;2024-02-21T10:51:19;96035.91;;;15.62;48.91
25526;BME280;13424;48.424;11.258;2024-02-21T10:54:07;96029.00;;;15.34;48.47
25526;BME280;13424;48.424;11.258;2024-02-21T10:56:39;96030.00;;;14.91;50.29
25526;BME280;13424;48.424;11.258;2024-02-21T10:59:08;96016.84;;;15.26;49.97
25526;BME280;13424;48.424;11.258;2024-02-21T11:01:34;96014.03;;;15.48;49.99
25526;BME280;13424;48.424;11.258;2024-02-21T11:04:06;96002.41;;;14.68;48.49
25526;BME280;13424;48.424;11.258;2024-02-21T11:06:38;95994.88;;;15.40;47.45
25526;BME280;13424;48.424;11.258;2024-02-21T11:09:10;96006.31;;;15.20;47.19
25526;BME280;13424;48.424;11.258;2024-02-21T11:11:43;96000.38;;;15.60;47.66
25526;BME280;13424;48.424;11.258;2024-02-21T11:14:19;95996.03;;;15.49;48.95
25526;BME280;13424;48.424;11.258;2024-02-21T11:16:46;95988.50;;;15.56;49.07
25526;BME280;13424;48.424;11.258;2024-02-21T11:19:28;95987.03;;;15.75;47.81
25526;BME280;13424;48.424;11.258;2024-02-21T11:21:57;95978.69;;;15.29;48.65
25526;BME280;13424;48.424;11.258;2024-02-21T11:24:31;95972.06;;;15.00;49.06
25526;BME280;13424;48.424;11.258;2024-02-21T11:27:19;95967.28;;;15.07;48.70
25526;BME280;13424;48.424;11.258;2024-02-21T11:29:56;95965.16;;;15.56;46.70
25526;BME280;13424;48.424;11.258;2024-02-21T11:32:28;95956.50;;;15.54;46.62
25526;BME280;13424;48.424;11.258;2024-02-21T11:34:57;95950.47;;;15.79;46.50
25526;BME280;13424;48.424;11.258;2024-02-21T11:37:31;95957.47;;;15.85;47.85
25526;BME280;13424;48.424;11.258;2024-02-21T11:40:00;95951.00;;;15.76;47.29
25526;BME280;13424;48.424;11.258;2024-02-21T11:42:27;95959.03;;;15.71;46.38
25526;BME280;13424;48.424;11.258;2024-02-21T11:44:56;95928.22;;;15.99;46.48
25526;BME280;13424;48.424;11.258;2024-02-21T11:47:25;95933.38;;;16.31;46.25
25526;BME280;13424;48.424;11.258;2024-02-21T11:49:54;95924.75;;;16.24;47.43
25526;BME280;13424;48.424;11.258;2024-02-21T11:52:25;95916.00;;;15.71;45.98
25526;BME280;13424;48.424;11.258;2024-02-21T11:54:52;95910.50;;;16.34;45.49
25526;BME280;13424;48.424;11.258;2024-02-21T11:57:18;95907.47;;;15.89;45.28
25526;BME280;13424;48.424;11.258;2024-02-21T11:59:45;95900.28;;;16.36;47.12
25526;BME280;13424;48.424;11.258;2024-02-21T12:02:12;95898.91;;;16.08;48.66
25526;BME280;13424;48.424;11.258;2024-02-21T12:04:39;95886.53;;;16.17;46.67
25526;BME280;13424;48.424;11.258;2024-02-21T12:07:05;95881.69;;;16.14;45.92
25526;BME280;13424;48.424;11.258;2024-02-21T12:09:34;95879.22;;;15.92;45.33
25526;BME280;13424;48.424;11.258;2024-02-21T12:12:05;95871.97;;;16.03;46.29
25526;BME280;13424;48.424;11.258;2024-02-21T12:14:34;95872.00;;;16.08;46.23
25526;BME280;13424;48.424;11.258;2024-02-21T12:17:02;95860.97;;;16.14;46.35
25526;BME280;13424;48.424;11.258;2024-02-21T12:19:33;95860.16;;;16.34;46.39
25526;BME280;13424;48.424;11.258;2024-02-21T12:22:00;95855.06;;;16.53;43.93
25526;BME280;13424;48.424;11.258;2024-02-21T12:24:28;95855.84;;;16.59;44.60
25526;BME280;13424;48.424;11.258;2024-02-21T12:26:56;95855.59;;;16.25;45.14
25526;BME280;13424;48.424;11.258;2024-02-21T12:29:24;95845.91;;;16.39;44.37
25526;BME280;13424;48.424;11.258;2024-02-21T12:31:51;95837.03;;;16.23;44.21
25526;BME280;13424;48.424;11.258;2024-02-21T12:34:17;95821.94;;;16.42;44.72
25526;BME280;13424;48.424;11.258;2024-02-21T12:36:46;95820.34;;;16.26;45.18
25526;BME280;13424;48.424;11.258;2024-02-21T12:39:15;95814.41;;;16.09;43.16
25526;BME280;13424;48.424;11.258;2024-02-21T12:41:43;95816.56;;;16.17;42.91
25526;BME280;13424;48.424;11.258;2024-02-21T12:44:10;95807.97;;;16.05;42.97
25526;BME280;13424;48.424;11.258;2024-02-21T12:46:40;95802.06;;;15.98;45.29
25526;BME280;13424;48.424;11.258;2024-02-21T12:49:06;95795.78;;;16.58;44.17
25526;BME280;13424;48.424;11.258;2024-02-21T12:51:34;95795.53;;;16.75;45.34
25526;BME280;13424;48.424;11.258;2024-02-21T12:54:01;95795.28;;;16.71;43.80
25526;BME280;13424;48.424;11.258;2024-02-21T12:56:28;95792.88;;;16.44;43.01
25526;BME280;13424;48.424;11.258;2024-02-21T12:58:57;95789.13;;;16.30;44.82
25526;BME280;13424;48.424;11.258;2024-02-21T13:01:23;95787.75;;;16.53;44.05
25526;BME280;13424;48.424;11.258;2024-02-21T13:07:39;95768.13;;;16.17;44.40
25526;BME280;13424;48.424;11.258;2024-02-21T13:10:07;95765.41;;;16.53;44.04
25526;BME280;13424;48.424;11.258;2024-02-21T13:12:34;95755.41;;;16.63;44.83